sensor_id;sensor_type;location;lat;lon;timestamp;pressure;altitude;pressure_sealevel;temperature;humidity
11011;BME280;5558;42.702;23.178;2023-01-30T00:00:00;93909.81;;;0.36;100.00
11011;BME280;5558;42.702;23.178;2023-01-30T00:02:28;93910.81;;;0.42;100.00
11011;BME280;5558;42.702;23.178;2023-01-30T00:04:54;93910.63;;;0.43;100.00
11011;BME280;5558;42.702;23.178;2023-01-30T00:07:21;93913.66;;;0.53;100.00
11011;BME280;5558;42.702;23.178;2023-01-30T00:09:48;93878.22;;;0.52;100.00
11011;BME280;5558;42.702;23.178;2023-01-30T00:12:14;93903.69;;;0.89;99.80
11011;BME280;5558;42.702;23.178;2023-01-30T00:14:41;93905.69;;;0.87;99.04
11011;BME280;5558;42.702;23.178;2023-01-30T00:17:08;93910.50;;;0.97;98.77
11011;BME280;5558;42.702;23.178;2023-01-30T00:19:36;93898.28;;;0.97;98.70
11011;BME280;5558;42.702;23.178;2023-01-30T00:22:02;93904.09;;;0.93;97.90
11011;BME280;5558;42.702;23.178;2023-01-30T00:24:29;93900.88;;;0.84;97.84
11011;BME280;5558;42.702;23.178;2023-01-30T00:26:55;93907.06;;;0.64;95.13
11011;BME280;5558;42.702;23.178;2023-01-30T00:29:22;93901.38;;;0.34;96.73
11011;BME280;5558;42.702;23.178;2023-01-30T00:31:48;93906.19;;;0.31;98.45
11011;BME280;5558;42.702;23.178;2023-01-30T00:34:15;93903.84;;;0.49;98.80
11011;BME280;5558;42.702;23.178;2023-01-30T00:36:42;93897.56;;;0.24;98.28
11011;BME280;5558;42.702;23.178;2023-01-30T00:39:09;93899.81;;;0.53;97.96
11011;BME280;5558;42.702;23.178;2023-01-30T00:41:35;93895.00;;;0.50;97.29
11011;BME280;5558;42.702;23.178;2023-01-30T00:44:31;93893.34;;;0.29;97.31
11011;BME280;5558;42.702;23.178;2023-01-30T00:47:16;93890.19;;;0.34;97.96
11011;BME280;5558;42.702;23.178;2023-01-30T00:49:43;93890.97;;;0.41;98.25
11011;BME280;5558;42.702;23.178;2023-01-30T00:52:11;93893.00;;;0.39;98.04
11011;BME280;5558;42.702;23.178;2023-01-30T00:54:37;93881.75;;;0.25;97.27
11011;BME280;5558;42.702;23.178;2023-01-30T00:57:04;93880.06;;;-0.02;98.83
11011;BME280;5558;42.702;23.178;2023-01-30T00:59:32;93884.84;;;-0.06;98.45
11011;BME280;5558;42.702;23.178;2023-01-30T01:01:59;93879.50;;;0.09;99.21
11011;BME280;5558;42.702;23.178;2023-01-30T01:04:26;93885.69;;;0.02;98.75
11011;BME280;5558;42.702;23.178;2023-01-30T01:06:54;93882.72;;;0.18;99.80
11011;BME280;5558;42.702;23.178;2023-01-30T01:09:22;93866.69;;;0.08;99.33
11011;BME280;5558;42.702;23.178;2023-01-30T01:11:48;93872.69;;;0.02;98.31
11011;BME280;5558;42.702;23.178;2023-01-30T01:14:15;93872.84;;;-0.07;100.00
11011;BME280;5558;42.702;23.178;2023-01-30T01:16:42;93870.50;;;0.05;100.00
11011;BME280;5558;42.702;23.178;2023-01-30T01:19:08;93837.25;;;-0.53;100.00
11011;BME280;5558;42.702;23.178;2023-01-30T01:21:35;93870.22;;;-0.13;100.00
11011;BME280;5558;42.702;23.178;2023-01-30T01:24:02;93863.66;;;-0.03;100.00
11011;BME280;5558;42.702;23.178;2023-01-30T01:26:30;93863.69;;;0.11;100.00
11011;BME280;5558;42.702;23.178;2023-01-30T01:28:56;93866.59;;;-0.19;99.56
11011;BME280;5558;42.702;23.178;2023-01-30T01:31:23;93865.81;;;-0.13;100.00
11011;BME280;5558;42.702;23.178;2023-01-30T01:33:50;93863.00;;;-0.18;100.00
11011;BME280;5558;42.702;23.178;2023-01-30T01:36:16;93858.28;;;0.06;100.00
11011;BME280;5558;42.702;23.178;2023-01-30T01:38:43;93850.41;;;-0.21;99.05
11011;BME280;5558;42.702;23.178;2023-01-30T01:41:09;93849.38;;;-0.20;100.00
11011;BME280;5558;42.702;23.178;2023-01-30T01:43:38;93854.19;;;-0.17;100.00
11011;BME280;5558;42.702;23.178;2023-01-30T01:46:24;93855.38;;;-0.26;99.81
11011;BME280;5558;42.702;23.178;2023-01-30T01:48:54;93855.53;;;-0.34;100.00
11011;BME280;5558;42.702;23.178;2023-01-30T01:51:23;93851.72;;;-0.38;100.00
11011;BME280;5558;42.702;23.178;2023-01-30T01:53:53;93850.50;;;-0.42;99.33
11011;BME280;5558;42.702;23.178;2023-01-30T01:56:21;93846.78;;;-0.20;100.00
11011;BME280;5558;42.702;23.178;2023-01-30T01:58:50;93847.41;;;-0.18;99.18
11011;BME280;5558;42.702;23.178;2023-01-30T02:01:18;93854.66;;;0.00;99.41
11011;BME280;5558;42.702;23.178;2023-01-30T02:03:45;93855.72;;;-0.35;99.10
11011;BME280;5558;42.702;23.178;2023-01-30T02:06:13;93858.34;;;-0.29;99.64
11011;BME280;5558;42.702;23.178;2023-01-30T02:08:41;93851.94;;;-0.33;99.79
11011;BME280;5558;42.702;23.178;2023-01-30T02:11:10;93853.94;;;-0.69;100.00
11011;BME280;5558;42.702;23.178;2023-01-30T02:13:37;93849.44;;;-0.88;100.00
11011;BME280;5558;42.702;23.178;2023-01-30T02:16:06;93850.78;;;-0.98;100.00
11011;BME280;5558;42.702;23.178;2023-01-30T02:18:34;93843.28;;;-0.80;100.00
11011;BME280;5558;42.702;23.178;2023-01-30T02:21:10;93842.03;;;-0.91;100.00
11011;BME280;5558;42.702;23.178;2023-01-30T02:23:55;93840.41;;;-0.64;100.00
11011;BME280;5558;42.702;23.178;2023-01-30T02:32:10;93837.53;;;-0.76;100.00
11011;BME280;5558;42.702;23.178;2023-01-30T02:34:41;93847.88;;;-0.42;100.00
11011;BME280;5558;42.702;23.178;2023-01-30T02:37:14;93844.31;;;-0.41;100.00
11011;BME280;5558;42.702;23.178;2023-01-30T02:39:46;93835.47;;;-0.46;100.00
11011;BME280;5558;42.702;23.178;2023-01-30T02:42:22;93837.06;;;-0.52;100.00
11011;BME280;5558;42.702;23.178;2023-01-30T02:44:57;93832.66;;;-0.51;100.00
11011;BME280;5558;42.702;23.178;2023-01-30T02:47:32;93833.84;;;-0.54;100.00
11011;BME280;5558;42.702;23.178;2023-01-30T02:50:00;93837.84;;;-0.58;100.00
11011;BME280;5558;42.702;23.178;2023-01-30T02:52:29;93839.44;;;-0.57;100.00
11011;BME280;5558;42.702;23.178;2023-01-30T02:54:56;93838.34;;;-0.69;100.00
11011;BME280;5558;42.702;23.178;2023-01-30T02:57:23;93837.28;;;-0.47;100.00
11011;BME280;5558;42.702;23.178;2023-01-30T02:59:54;93845.44;;;-0.56;100.00
11011;BME280;5558;42.702;23.178;2023-01-30T03:02:42;93837.53;;;-0.29;100.00
11011;BME280;5558;42.702;23.178;2023-01-30T03:05:22;93850.50;;;-0.42;100.00
11011;BME280;5558;42.702;23.178;2023-01-30T03:08:03;93841.00;;;-0.15;100.00
11011;BME280;5558;42.702;23.178;2023-01-30T03:10:36;93835.66;;;-0.01;100.00
11011;BME280;5558;42.702;23.178;2023-01-30T03:13:04;93836.84;;;0.03;100.00
11011;BME280;5558;42.702;23.178;2023-01-30T03:15:36;93834.28;;;0.17;97.86
11011;BME280;5558;42.702;23.178;2023-01-30T03:18:06;93836.91;;;0.30;98.09
11011;BME280;5558;42.702;23.178;2023-01-30T03:20:35;93825.28;;;0.19;98.06
11011;BME280;5558;42.702;23.178;2023-01-30T03:23:02;93824.50;;;0.19;97.90
11011;BME280;5558;42.702;23.178;2023-01-30T03:25:28;93820.47;;;0.10;98.02
11011;BME280;5558;42.702;23.178;2023-01-30T03:27:56;93818.47;;;0.18;98.10
11011;BME280;5558;42.702;23.178;2023-01-30T03:30:22;93814.72;;;0.47;97.76
11011;BME280;5558;42.702;23.178;2023-01-30T03:32:50;93815.53;;;0.60;97.86
11011;BME280;5558;42.702;23.178;2023-01-30T03:35:18;93814.09;;;0.45;96.28
11011;BME280;5558;42.702;23.178;2023-01-30T03:37:45;93813.09;;;0.26;96.62
11011;BME280;5558;42.702;23.178;2023-01-30T03:40:13;93817.31;;;0.40;96.72
11011;BME280;5558;42.702;23.178;2023-01-30T03:42:41;93795.47;;;0.48;96.42
11011;BME280;5558;42.702;23.178;2023-01-30T03:45:09;93808.09;;;0.31;96.92
11011;BME280;5558;42.702;23.178;2023-01-30T03:47:36;93776.56;;;-0.20;97.75
11011;BME280;5558;42.702;23.178;2023-01-30T03:50:04;93801.63;;;0.01;99.51
11011;BME280;5558;42.702;23.178;2023-01-30T03:52:33;93797.66;;;0.05;100.00
11011;BME280;5558;42.702;23.178;2023-01-30T03:55:00;93793.63;;;-0.11;100.00
11011;BME280;5558;42.702;23.178;2023-01-30T03:57:27;93796.38;;;-0.19;100.00
11011;BME280;5558;42.702;23.178;2023-01-30T03:59:53;93796.38;;;-0.19;100.00
11011;BME280;5558;42.702;23.178;2023-01-30T04:02:20;93796.03;;;0.17;100.00
11011;BME280;5558;42.702;23.178;2023-01-30T04:04:47;93802.25;;;0.16;100.00
11011;BME280;5558;42.702;23.178;2023-01-30T04:07:14;93793.69;;;0.48;100.00
11011;BME280;5558;42.702;23.178;2023-01-30T04:09:43;93795.06;;;0.44;100.00
11011;BME280;5558;42.702;23.178;2023-01-30T04:12:10;93791.66;;;0.18;100.00
11011;BME280;5558;42.702;23.178;2023-01-30T04:14:36;93758.38;;;-0.07;100.00
11011;BME280;5558;42.702;23.178;2023-01-30T04:17:03;93785.94;;;-0.25;100.00
11011;BME280;5558;42.702;23.178;2023-01-30T04:19:30;93759.94;;;-0.32;100.00
11011;BME280;5558;42.702;23.178;2023-01-30T04:21:56;93793.25;;;0.12;100.00
11011;BME280;5558;42.702;23.178;2023-01-30T04:24:23;93787.41;;;-0.03;100.00
11011;BME280;5558;42.702;23.178;2023-01-30T04:26:51;93791.44;;;-0.01;100.00
11011;BME280;5558;42.702;23.178;2023-01-30T04:29:18;93783.22;;;-0.11;100.00
11011;BME280;5558;42.702;23.178;2023-01-30T04:31:44;93793.25;;;0.12;100.00
11011;BME280;5558;42.702;23.178;2023-01-30T04:34:11;93788.06;;;0.25;100.00
11011;BME280;5558;42.702;23.178;2023-01-30T04:36:38;93790.44;;;0.07;100.00
11011;BME280;5558;42.702;23.178;2023-01-30T04:39:05;93786.56;;;-0.23;100.00
11011;BME280;5558;42.702;23.178;2023-01-30T04:41:32;93778.13;;;-0.32;100.00
11011;BME280;5558;42.702;23.178;2023-01-30T04:44:00;93780.22;;;0.06;100.00
11011;BME280;5558;42.702;23.178;2023-01-30T04:46:26;93776.25;;;0.16;100.00
11011;BME280;5558;42.702;23.178;2023-01-30T04:48:53;93764.50;;;-0.40;100.00
11011;BME280;5558;42.702;23.178;2023-01-30T04:51:20;93771.47;;;-0.54;100.00
11011;BME280;5558;42.702;23.178;2023-01-30T04:53:46;93767.09;;;-0.94;100.00
11011;BME280;5558;42.702;23.178;2023-01-30T04:56:13;93758.19;;;-0.78;100.00
11011;BME280;5558;42.702;23.178;2023-01-30T04:58:40;93760.50;;;-0.49;100.00
11011;BME280;5558;42.702;23.178;2023-01-30T05:01:17;93756.72;;;-0.34;100.00
11011;BME280;5558;42.702;23.178;2023-01-30T05:03:49;93754.72;;;-0.45;100.00
11011;BME280;5558;42.702;23.178;2023-01-30T05:06:16;93753.47;;;-0.49;100.00
11011;BME280;5558;42.702;23.178;2023-01-30T05:08:42;93747.34;;;-0.28;100.00
11011;BME280;5558;42.702;23.178;2023-01-30T05:11:09;93751.34;;;-0.32;100.00
11011;BME280;5558;42.702;23.178;2023-01-30T05:13:36;93753.34;;;-0.28;100.00
11011;BME280;5558;42.702;23.178;2023-01-30T05:16:03;93750.53;;;-0.39;100.00
11011;BME280;5558;42.702;23.178;2023-01-30T05:18:31;93757.09;;;-0.43;100.00
11011;BME280;5558;42.702;23.178;2023-01-30T05:21:04;93752.78;;;-0.77;100.00
11011;BME280;5558;42.702;23.178;2023-01-30T05:23:31;93766.34;;;-0.34;100.00
11011;BME280;5558;42.702;23.178;2023-01-30T05:25:57;93763.16;;;-0.17;100.00
11011;BME280;5558;42.702;23.178;2023-01-30T05:28:24;93766.41;;;-0.08;100.00
11011;BME280;5558;42.702;23.178;2023-01-30T05:30:51;93766.50;;;-0.42;100.00
11011;BME280;5558;42.702;23.178;2023-01-30T05:33:18;93763.94;;;-0.36;100.00
11011;BME280;5558;42.702;23.178;2023-01-30T05:35:49;93763.38;;;-0.25;100.00
11011;BME280;5558;42.702;23.178;2023-01-30T05:38:15;93770.75;;;-0.22;100.00
11011;BME280;5558;42.702;23.178;2023-01-30T05:40:42;93772.06;;;0.15;100.00
11011;BME280;5558;42.702;23.178;2023-01-30T05:43:09;93774.25;;;0.38;100.00
11011;BME280;5558;42.702;23.178;2023-01-30T05:45:36;93764.00;;;-0.03;100.00
11011;BME280;5558;42.702;23.178;2023-01-30T05:48:03;93771.41;;;-0.07;100.00
11011;BME280;5558;42.702;23.178;2023-01-30T05:50:30;93772.22;;;0.00;100.00
11011;BME280;5558;42.702;23.178;2023-01-30T05:52:58;93771.66;;;0.25;100.00
11011;BME280;5558;42.702;23.178;2023-01-30T05:55:25;93768.84;;;0.26;100.00
11011;BME280;5558;42.702;23.178;2023-01-30T05:57:51;93776.03;;;0.05;100.00
11011;BME280;5558;42.702;23.178;2023-01-30T06:00:19;93784.25;;;0.34;100.00
11011;BME280;5558;42.702;23.178;2023-01-30T06:02:46;93779.88;;;0.22;100.00
11011;BME280;5558;42.702;23.178;2023-01-30T06:05:13;93773.66;;;0.29;100.00
11011;BME280;5558;42.702;23.178;2023-01-30T06:07:39;93782.88;;;0.25;100.00
11011;BME280;5558;42.702;23.178;2023-01-30T06:10:08;93740.59;;;0.03;100.00
11011;BME280;5558;42.702;23.178;2023-01-30T06:12:35;93782.47;;;0.61;100.00
11011;BME280;5558;42.702;23.178;2023-01-30T06:15:02;93783.28;;;0.35;100.00
11011;BME280;5558;42.702;23.178;2023-01-30T06:17:29;93776.84;;;0.12;100.00
11011;BME280;5558;42.702;23.178;2023-01-30T06:19:56;93776.16;;;-0.30;100.00
11011;BME280;5558;42.702;23.178;2023-01-30T06:22:22;93768.00;;;-0.67;100.00
11011;BME280;5558;42.702;23.178;2023-01-30T06:24:49;93770.38;;;-0.19;100.00
11011;BME280;5558;42.702;23.178;2023-01-30T06:27:17;93772.38;;;-0.21;100.00
11011;BME280;5558;42.702;23.178;2023-01-30T06:29:45;93761.97;;;-0.21;100.00
11011;BME280;5558;42.702;23.178;2023-01-30T06:32:11;93770.41;;;-0.12;100.00
11011;BME280;5558;42.702;23.178;2023-01-30T06:34:39;93775.81;;;-0.07;100.00
11011;BME280;5558;42.702;23.178;2023-01-30T06:37:06;93722.78;;;-0.19;100.00
11011;BME280;5558;42.702;23.178;2023-01-30T06:39:32;93763.22;;;0.03;100.00
11011;BME280;5558;42.702;23.178;2023-01-30T06:41:59;93772.19;;;-0.06;100.00
11011;BME280;5558;42.702;23.178;2023-01-30T06:44:27;93772.63;;;0.04;100.00
11011;BME280;5558;42.702;23.178;2023-01-30T06:46:54;93778.03;;;0.22;100.00
11011;BME280;5558;42.702;23.178;2023-01-30T06:49:21;93775.34;;;-0.24;100.00
11011;BME280;5558;42.702;23.178;2023-01-30T06:51:47;93773.22;;;-0.01;100.00
11011;BME280;5558;42.702;23.178;2023-01-30T06:54:14;93777.22;;;-0.05;100.00
11011;BME280;5558;42.702;23.178;2023-01-30T06:56:41;93778.63;;;-0.09;100.00
11011;BME280;5558;42.702;23.178;2023-01-30T06:59:08;93789.25;;;0.03;100.00
11011;BME280;5558;42.702;23.178;2023-01-30T07:01:36;93773.78;;;-0.18;100.00
11011;BME280;5558;42.702;23.178;2023-01-30T07:04:03;93778.88;;;-0.51;100.00
11011;BME280;5558;42.702;23.178;2023-01-30T07:06:29;93781.63;;;-0.65;100.00
11011;BME280;5558;42.702;23.178;2023-01-30T07:08:57;93783.81;;;-0.62;100.00
11011;BME280;5558;42.702;23.178;2023-01-30T07:11:24;93790.16;;;-0.78;100.00
11011;BME280;5558;42.702;23.178;2023-01-30T07:13:51;93785.25;;;-0.53;100.00
11011;BME280;5558;42.702;23.178;2023-01-30T07:16:18;93785.09;;;-0.45;100.00
11011;BME280;5558;42.702;23.178;2023-01-30T07:18:46;93785.28;;;-0.47;100.00
11011;BME280;5558;42.702;23.178;2023-01-30T07:21:13;93794.78;;;-0.13;100.00
11011;BME280;5558;42.702;23.178;2023-01-30T07:23:39;93785.81;;;-0.11;100.00
11011;BME280;5558;42.702;23.178;2023-01-30T07:26:06;93786.75;;;-0.25;100.00
11011;BME280;5558;42.702;23.178;2023-01-30T07:28:33;93781.84;;;0.07;100.00
11011;BME280;5558;42.702;23.178;2023-01-30T07:30:59;93788.59;;;-0.12;100.00
11011;BME280;5558;42.702;23.178;2023-01-30T07:33:26;93796.63;;;-0.14;100.00
11011;BME280;5558;42.702;23.178;2023-01-30T07:35:55;93774.41;;;-0.03;100.00
11011;BME280;5558;42.702;23.178;2023-01-30T07:38:22;93808.84;;;0.06;100.00
11011;BME280;5558;42.702;23.178;2023-01-30T07:40:48;93802.44;;;0.02;100.00
11011;BME280;5558;42.702;23.178;2023-01-30T07:43:15;93802.88;;;0.12;100.00
11011;BME280;5558;42.702;23.178;2023-01-30T07:45:43;93804.06;;;0.22;100.00
11011;BME280;5558;42.702;23.178;2023-01-30T07:48:11;93802.88;;;0.31;100.00
11011;BME280;5558;42.702;23.178;2023-01-30T07:50:39;93796.69;;;0.52;100.00
11011;BME280;5558;42.702;23.178;2023-01-30T07:53:09;93801.69;;;0.66;100.00
11011;BME280;5558;42.702;23.178;2023-01-30T07:55:36;93806.31;;;0.71;100.00
11011;BME280;5558;42.702;23.178;2023-01-30T07:58:03;93786.88;;;0.73;100.00
11011;BME280;5558;42.702;23.178;2023-01-30T08:00:30;93793.84;;;1.05;100.00
11011;BME280;5558;42.702;23.178;2023-01-30T08:02:57;93784.44;;;0.91;100.00
11011;BME280;5558;42.702;23.178;2023-01-30T08:05:25;93780.22;;;0.97;99.81
11011;BME280;5558;42.702;23.178;2023-01-30T08:07:54;93752.81;;;0.62;99.99
11011;BME280;5558;42.702;23.178;2023-01-30T08:10:23;93768.44;;;0.68;99.02
11011;BME280;5558;42.702;23.178;2023-01-30T08:12:50;93779.06;;;0.60;99.76
11011;BME280;5558;42.702;23.178;2023-01-30T08:15:17;93775.25;;;0.89;99.43
11011;BME280;5558;42.702;23.178;2023-01-30T08:17:43;93777.25;;;0.74;96.62
11011;BME280;5558;42.702;23.178;2023-01-30T08:20:11;93778.88;;;0.42;97.97
11011;BME280;5558;42.702;23.178;2023-01-30T08:22:40;93772.06;;;0.41;97.71
11011;BME280;5558;42.702;23.178;2023-01-30T08:25:07;93766.84;;;0.67;96.73
11011;BME280;5558;42.702;23.178;2023-01-30T08:27:35;93770.25;;;0.68;96.00
11011;BME280;5558;42.702;23.178;2023-01-30T08:30:02;93766.41;;;0.83;96.55
11011;BME280;5558;42.702;23.178;2023-01-30T08:32:29;93763.59;;;0.85;96.51
11011;BME280;5558;42.702;23.178;2023-01-30T08:34:56;93753.56;;;1.08;95.34
11011;BME280;5558;42.702;23.178;2023-01-30T08:37:22;93747.13;;;1.10;94.95
11011;BME280;5558;42.702;23.178;2023-01-30T08:39:49;93754.72;;;1.18;94.19
11011;BME280;5558;42.702;23.178;2023-01-30T08:42:16;93752.13;;;1.25;93.13
11011;BME280;5558;42.702;23.178;2023-01-30T08:44:44;93755.66;;;1.44;92.10
11011;BME280;5558;42.702;23.178;2023-01-30T08:47:10;93752.88;;;1.39;91.00
11011;BME280;5558;42.702;23.178;2023-01-30T08:49:37;93748.81;;;1.43;90.87
11011;BME280;5558;42.702;23.178;2023-01-30T08:52:04;93750.81;;;1.54;90.61
11011;BME280;5558;42.702;23.178;2023-01-30T08:54:30;93749.06;;;1.35;90.97
11011;BME280;5558;42.702;23.178;2023-01-30T08:56:57;93746.44;;;1.35;90.93
11011;BME280;5558;42.702;23.178;2023-01-30T08:59:23;93745.81;;;1.39;90.65
11011;BME280;5558;42.702;23.178;2023-01-30T09:01:51;93743.38;;;1.57;89.16
11011;BME280;5558;42.702;23.178;2023-01-30T09:04:18;93728.03;;;1.74;88.47
11011;BME280;5558;42.702;23.178;2023-01-30T09:06:44;93729.03;;;1.22;89.29
11011;BME280;5558;42.702;23.178;2023-01-30T09:09:11;93734.75;;;0.99;92.36
11011;BME280;5558;42.702;23.178;2023-01-30T09:11:37;93738.22;;;0.67;95.07
11011;BME280;5558;42.702;23.178;2023-01-30T09:14:03;93745.03;;;0.16;99.78
11011;BME280;5558;42.702;23.178;2023-01-30T09:16:30;93734.00;;;0.08;100.00
11011;BME280;5558;42.702;23.178;2023-01-30T09:18:58;93732.22;;;0.15;100.00
11011;BME280;5558;42.702;23.178;2023-01-30T09:21:25;93733.03;;;0.15;100.00
11011;BME280;5558;42.702;23.178;2023-01-30T09:23:54;93730.19;;;-0.10;100.00
11011;BME280;5558;42.702;23.178;2023-01-30T09:26:21;93734.00;;;0.21;100.00
11011;BME280;5558;42.702;23.178;2023-01-30T09:28:48;93731.41;;;0.60;100.00
11011;BME280;5558;42.702;23.178;2023-01-30T09:31:14;93726.00;;;0.48;99.97
11011;BME280;5558;42.702;23.178;2023-01-30T09:33:41;93730.59;;;-0.13;100.00
11011;BME280;5558;42.702;23.178;2023-01-30T09:36:09;93720.81;;;0.42;100.00
11011;BME280;5558;42.702;23.178;2023-01-30T09:38:36;93719.22;;;0.47;100.00
11011;BME280;5558;42.702;23.178;2023-01-30T09:41:38;93722.81;;;0.20;100.00
11011;BME280;5558;42.702;23.178;2023-01-30T09:44:33;93705.56;;;-0.20;100.00
11011;BME280;5558;42.702;23.178;2023-01-30T09:47:09;93710.38;;;-0.11;100.00
11011;BME280;5558;42.702;23.178;2023-01-30T09:49:43;93709.56;;;-0.31;100.00
11011;BME280;5558;42.702;23.178;2023-01-30T09:52:20;93702.19;;;-0.08;100.00
11011;BME280;5558;42.702;23.178;2023-01-30T09:54:59;93704.56;;;-0.26;100.00
11011;BME280;5558;42.702;23.178;2023-01-30T09:57:27;93710.19;;;0.11;100.00
11011;BME280;5558;42.702;23.178;2023-01-30T09:59:56;93684.34;;;-0.24;100.00
11011;BME280;5558;42.702;23.178;2023-01-30T10:02:26;93698.16;;;-0.36;100.00
11011;BME280;5558;42.702;23.178;2023-01-30T10:04:55;93696.06;;;-0.67;100.00
11011;BME280;5558;42.702;23.178;2023-01-30T10:07:26;93686.38;;;-0.32;100.00
11011;BME280;5558;42.702;23.178;2023-01-30T10:09:58;93684.53;;;-0.25;100.00
11011;BME280;5558;42.702;23.178;2023-01-30T10:12:32;93685.97;;;-0.36;100.00
11011;BME280;5558;42.702;23.178;2023-01-30T10:15:11;93675.09;;;-0.59;100.00
11011;BME280;5558;42.702;23.178;2023-01-30T10:17:43;93669.91;;;-0.59;100.00
11011;BME280;5558;42.702;23.178;2023-01-30T10:22:59;93667.28;;;-0.59;100.00
11011;BME280;5558;42.702;23.178;2023-01-30T10:25:28;93660.72;;;-0.61;100.00
11011;BME280;5558;42.702;23.178;2023-01-30T10:27:58;93654.34;;;-0.46;100.00
11011;BME280;5558;42.702;23.178;2023-01-30T10:30:27;93654.75;;;-0.29;100.00
11011;BME280;5558;42.702;23.178;2023-01-30T10:32:55;93648.97;;;-0.25;100.00
11011;BME280;5558;42.702;23.178;2023-01-30T10:35:25;93642.75;;;0.03;100.00
11011;BME280;5558;42.702;23.178;2023-01-30T10:37:55;93638.78;;;0.07;100.00
11011;BME280;5558;42.702;23.178;2023-01-30T10:40:26;93627.31;;;0.27;100.00
11011;BME280;5558;42.702;23.178;2023-01-30T10:42:56;93631.16;;;-0.02;100.00
11011;BME280;5558;42.702;23.178;2023-01-30T10:45:26;93616.94;;;0.01;100.00
11011;BME280;5558;42.702;23.178;2023-01-30T10:47:57;93611.16;;;-0.01;100.00
11011;BME280;5558;42.702;23.178;2023-01-30T10:50:25;93605.72;;;0.07;100.00
11011;BME280;5558;42.702;23.178;2023-01-30T10:52:55;93600.50;;;0.14;99.84
11011;BME280;5558;42.702;23.178;2023-01-30T10:55:31;93574.16;;;-0.23;99.35
11011;BME280;5558;42.702;23.178;2023-01-30T10:58:06;93590.38;;;-0.27;99.79
11011;BME280;5558;42.702;23.178;2023-01-30T11:00:40;93585.94;;;-0.01;99.44
11011;BME280;5558;42.702;23.178;2023-01-30T11:03:15;93577.50;;;0.24;99.05
11011;BME280;5558;42.702;23.178;2023-01-30T11:05:46;93580.28;;;0.35;98.01
11011;BME280;5558;42.702;23.178;2023-01-30T11:08:19;93571.50;;;0.17;98.13
11011;BME280;5558;42.702;23.178;2023-01-30T11:10:48;93567.03;;;0.43;97.33
11011;BME280;5558;42.702;23.178;2023-01-30T11:13:17;93563.00;;;0.54;95.95
11011;BME280;5558;42.702;23.178;2023-01-30T11:15:46;93563.50;;;0.75;94.67
11011;BME280;5558;42.702;23.178;2023-01-30T11:18:15;93551.75;;;0.60;95.33
11011;BME280;5558;42.702;23.178;2023-01-30T11:20:44;93551.16;;;0.58;95.52
11011;BME280;5558;42.702;23.178;2023-01-30T11:23:23;93537.63;;;0.30;94.39
11011;BME280;5558;42.702;23.178;2023-01-30T11:25:54;93535.88;;;0.24;96.92
11011;BME280;5558;42.702;23.178;2023-01-30T11:28:22;93520.81;;;0.26;96.35
11011;BME280;5558;42.702;23.178;2023-01-30T11:30:53;93525.94;;;0.52;95.57
11011;BME280;5558;42.702;23.178;2023-01-30T11:33:23;93528.16;;;0.48;94.47
11011;BME280;5558;42.702;23.178;2023-01-30T11:35:57;93526.00;;;0.39;95.53
11011;BME280;5558;42.702;23.178;2023-01-30T11:38:26;93515.16;;;0.48;96.31
11011;BME280;5558;42.702;23.178;2023-01-30T11:41:09;93517.19;;;0.40;94.93
11011;BME280;5558;42.702;23.178;2023-01-30T11:43:39;93510.41;;;0.26;95.79
11011;BME280;5558;42.702;23.178;2023-01-30T11:46:06;93496.72;;;0.50;95.41
11011;BME280;5558;42.702;23.178;2023-01-30T11:48:40;93496.06;;;0.61;93.60
11011;BME280;5558;42.702;23.178;2023-01-30T11:51:09;93492.75;;;0.47;91.97
11011;BME280;5558;42.702;23.178;2023-01-30T11:53:38;93482.63;;;0.64;92.42
11011;BME280;5558;42.702;23.178;2023-01-30T11:56:14;93485.06;;;0.90;91.50
11011;BME280;5558;42.702;23.178;2023-01-30T11:58:42;93477.75;;;1.05;89.85
11011;BME280;5558;42.702;23.178;2023-01-30T12:01:13;93474.91;;;0.82;86.65
11011;BME280;5558;42.702;23.178;2023-01-30T12:03:45;93472.03;;;1.21;85.35
11011;BME280;5558;42.702;23.178;2023-01-30T12:06:20;93479.81;;;1.52;82.75
11011;BME280;5558;42.702;23.178;2023-01-30T12:08:50;93462.09;;;1.11;79.75
11011;BME280;5558;42.702;23.178;2023-01-30T12:11:28;93459.34;;;1.06;79.09
11011;BME280;5558;42.702;23.178;2023-01-30T12:14:12;93443.81;;;0.87;78.10
11011;BME280;5558;42.702;23.178;2023-01-30T12:16:47;93451.53;;;1.00;78.96
11011;BME280;5558;42.702;23.178;2023-01-30T12:19:27;93443.06;;;1.11;79.05
11011;BME280;5558;42.702;23.178;2023-01-30T12:22:02;93440.28;;;1.06;79.60
11011;BME280;5558;42.702;23.178;2023-01-30T12:24:37;93439.91;;;1.02;78.98
11011;BME280;5558;42.702;23.178;2023-01-30T12:27:14;93444.19;;;0.90;78.27
11011;BME280;5558;42.702;23.178;2023-01-30T12:29:53;93435.84;;;0.82;79.34
11011;BME280;5558;42.702;23.178;2023-01-30T12:32:25;93421.94;;;0.94;77.39
11011;BME280;5558;42.702;23.178;2023-01-30T12:34:53;93415.13;;;0.93;79.75
11011;BME280;5558;42.702;23.178;2023-01-30T12:37:34;93411.81;;;0.80;78.54
11011;BME280;5558;42.702;23.178;2023-01-30T12:40:12;93421.47;;;1.04;76.19
11011;BME280;5558;42.702;23.178;2023-01-30T12:43:01;93410.34;;;1.15;76.14
11011;BME280;5558;42.702;23.178;2023-01-30T12:45:38;93401.38;;;1.11;73.81
11011;BME280;5558;42.702;23.178;2023-01-30T12:51:16;93413.28;;;1.25;74.57
11011;BME280;5558;42.702;23.178;2023-01-30T12:53:55;93378.16;;;1.27;74.28
11011;BME280;5558;42.702;23.178;2023-01-30T12:56:37;93396.56;;;1.51;74.54
11011;BME280;5558;42.702;23.178;2023-01-30T12:59:12;93397.22;;;1.46;73.53
11011;BME280;5558;42.702;23.178;2023-01-30T13:01:48;93392.09;;;1.58;73.94
11011;BME280;5558;42.702;23.178;2023-01-30T13:04:23;93394.25;;;1.43;71.86
11011;BME280;5558;42.702;23.178;2023-01-30T13:07:07;93382.94;;;1.31;73.47
11011;BME280;5558;42.702;23.178;2023-01-30T13:09:51;93392.31;;;1.56;73.19
11011;BME280;5558;42.702;23.178;2023-01-30T13:12:32;93373.00;;;1.21;72.41
11011;BME280;5558;42.702;23.178;2023-01-30T13:15:12;93382.44;;;0.97;75.07
11011;BME280;5558;42.702;23.178;2023-01-30T13:17:54;93380.44;;;0.68;76.30
11011;BME280;5558;42.702;23.178;2023-01-30T13:20:39;93376.59;;;0.77;76.43
11011;BME280;5558;42.702;23.178;2023-01-30T13:23:16;93376.59;;;0.77;75.83